createdAt,value
2019-03-30T00:00:51.387Z,1021.01
2019-03-30T00:01:51.378Z,1021.02
2019-03-30T00:02:51.364Z,1020.97
2019-03-30T00:03:51.379Z,1021.05
2019-03-30T00:04:51.344Z,1021.04
2019-03-30T00:05:51.334Z,1021.00
2019-03-30T00:06:51.322Z,1021.01
2019-03-30T00:07:51.310Z,1021.00
2019-03-30T00:08:51.336Z,1020.97
2019-03-30T00:09:51.290Z,1020.93
2019-03-30T00:10:51.278Z,1020.93
2019-03-30T00:11:51.266Z,1020.92
2019-03-30T00:12:51.258Z,1020.94
2019-03-30T00:13:51.244Z,1020.91
2019-03-30T00:14:51.259Z,1020.94
2019-03-30T00:15:51.224Z,1020.90
2019-03-30T00:16:51.214Z,1020.88
2019-03-30T00:17:51.203Z,1020.91
2019-03-30T00:18:51.192Z,1020.90
2019-03-30T00:19:51.215Z,1020.90
2019-03-30T00:20:51.171Z,1020.86
2019-03-30T00:21:51.159Z,1020.85
2019-03-30T00:22:51.151Z,1020.87
2019-03-30T00:23:51.137Z,1020.85
2019-03-30T00:24:51.129Z,1020.86
2019-03-30T00:25:51.143Z,1020.81
2019-03-30T00:26:51.105Z,1020.87
2019-03-30T00:27:51.094Z,1020.82
2019-03-30T00:28:51.084Z,1020.85
2019-03-30T00:29:51.072Z,1020.80
2019-03-30T00:30:51.098Z,1020.81
2019-03-30T00:31:51.054Z,1020.80
2019-03-30T00:32:51.042Z,1020.75
2019-03-30T00:33:51.029Z,1020.73
2019-03-30T00:34:51.017Z,1020.73
2019-03-30T00:35:51.007Z,1020.74
2019-03-30T00:36:51.021Z,1020.71
2019-03-30T00:37:50.989Z,1020.71
2019-03-30T00:38:50.974Z,1020.73
2019-03-30T00:39:50.965Z,1020.71
2019-03-30T00:40:50.951Z,1020.67
2019-03-30T00:41:50.978Z,1020.69
2019-03-30T00:42:50.930Z,1020.64
2019-03-30T00:43:50.919Z,1020.64
2019-03-30T00:44:50.907Z,1020.62
2019-03-30T00:45:50.898Z,1020.63
2019-03-30T00:46:50.885Z,1020.63
2019-03-30T00:47:50.901Z,1020.64
2019-03-30T00:48:50.862Z,1020.59
2019-03-30T00:49:50.855Z,1020.62
2019-03-30T00:50:50.840Z,1020.64
2019-03-30T00:51:50.829Z,1020.66
2019-03-30T00:52:50.857Z,1020.63
2019-03-30T00:53:50.808Z,1020.64
2019-03-30T00:54:50.804Z,1020.65
2019-03-30T00:55:50.786Z,1020.64
2019-03-30T00:56:50.775Z,1020.66
2019-03-30T00:57:50.765Z,1020.66
2019-03-30T00:58:50.779Z,1020.61
2019-03-30T00:59:50.742Z,1020.61
2019-03-30T01:00:50.735Z,1020.62
2019-03-30T01:01:50.720Z,1020.61
2019-03-30T01:02:50.711Z,1020.61
2019-03-30T01:03:50.736Z,1020.60
2019-03-30T01:04:50.689Z,1020.55
2019-03-30T01:05:50.677Z,1020.59
2019-03-30T01:06:50.667Z,1020.57
2019-03-30T01:07:50.657Z,1020.56
2019-03-30T01:08:50.645Z,1020.54
2019-03-30T01:09:50.658Z,1020.57
2019-03-30T01:10:50.622Z,1020.57
2019-03-30T01:11:50.611Z,1020.54
2019-03-30T01:12:50.600Z,1020.54
2019-03-30T01:13:50.595Z,1020.51
2019-03-30T01:14:50.615Z,1020.52
2019-03-30T01:15:50.568Z,1020.53
2019-03-30T01:16:50.559Z,1020.53
2019-03-30T01:17:50.546Z,1020.48
2019-03-30T01:18:50.536Z,1020.49
2019-03-30T01:20:02.240Z,1020.50
2019-03-30T01:20:51.541Z,1020.49
2019-03-30T01:21:50.503Z,1020.50
2019-03-30T01:22:50.500Z,1020.47
2019-03-30T01:23:50.482Z,1020.45
2019-03-30T01:24:50.471Z,1020.41
2019-03-30T01:25:50.496Z,1020.49
2019-03-30T01:26:50.450Z,1020.49
2019-03-30T01:27:50.438Z,1020.43
2019-03-30T01:28:50.430Z,1020.48
2019-03-30T01:29:50.419Z,1020.46
2019-03-30T01:30:50.406Z,1020.46
2019-03-30T01:31:50.421Z,1020.46
2019-03-30T01:32:50.389Z,1020.45
2019-03-30T01:33:50.377Z,1020.48
2019-03-30T01:34:50.364Z,1020.49
2019-03-30T01:35:50.353Z,1020.49
2019-03-30T01:36:50.368Z,1020.46
2019-03-30T01:37:50.332Z,1020.51
2019-03-30T01:38:50.320Z,1020.51
2019-03-30T01:39:50.308Z,1020.46
2019-03-30T01:40:50.299Z,1020.46
2019-03-30T01:41:50.337Z,1020.42
2019-03-30T01:42:50.278Z,1020.41
2019-03-30T01:43:50.264Z,1020.41
2019-03-30T01:44:50.254Z,1020.38
2019-03-30T01:45:50.243Z,1020.40
2019-03-30T01:46:50.234Z,1020.42
2019-03-30T01:47:50.252Z,1020.42
2019-03-30T01:48:50.214Z,1020.42
2019-03-30T01:49:50.200Z,1020.39
2019-03-30T01:50:50.191Z,1020.39
2019-03-30T01:51:50.178Z,1020.34
2019-03-30T01:52:50.208Z,1020.34
2019-03-30T01:53:50.157Z,1020.33
2019-03-30T01:54:50.148Z,1020.32
2019-03-30T01:55:50.151Z,1020.36
2019-03-30T01:56:50.124Z,1020.31
2019-03-30T01:57:50.115Z,1020.31
2019-03-30T01:58:50.127Z,1020.34
2019-03-30T01:59:50.094Z,1020.33
2019-03-30T02:00:50.083Z,1020.31
2019-03-30T02:01:50.074Z,1020.34
2019-03-30T02:02:50.062Z,1020.33
2019-03-30T02:03:50.077Z,1020.33
2019-03-30T02:04:50.041Z,1020.33
2019-03-30T02:05:50.035Z,1020.34
2019-03-30T02:06:50.032Z,1020.35
2019-03-30T02:07:50.009Z,1020.31
2019-03-30T02:08:50.036Z,1020.33
2019-03-30T02:09:49.987Z,1020.32
2019-03-30T02:10:49.980Z,1020.33
2019-03-30T02:11:49.965Z,1020.28
2019-03-30T02:12:49.958Z,1020.35
2019-03-30T02:13:49.946Z,1020.29
2019-03-30T02:14:49.960Z,1020.25
2019-03-30T02:15:49.926Z,1020.25
2019-03-30T02:16:49.914Z,1020.29
2019-03-30T02:17:49.903Z,1020.25
2019-03-30T02:18:49.890Z,1020.24
2019-03-30T02:19:49.920Z,1020.22
2019-03-30T02:20:49.873Z,1020.21
2019-03-30T02:21:49.861Z,1020.15
2019-03-30T02:22:49.852Z,1020.21
2019-03-30T02:23:49.839Z,1020.20
2019-03-30T02:24:49.828Z,1020.16
2019-03-30T02:25:49.846Z,1020.18
2019-03-30T02:26:49.814Z,1020.18
2019-03-30T02:27:49.797Z,1020.19
2019-03-30T02:28:49.786Z,1020.18
2019-03-30T02:29:49.776Z,1020.19
2019-03-30T02:30:49.903Z,1020.20
2019-03-30T02:31:49.770Z,1020.18
2019-03-30T02:32:49.745Z,1020.19
2019-03-30T02:33:49.737Z,1020.15
2019-03-30T02:34:49.724Z,1020.18
2019-03-30T02:35:49.714Z,1020.16
2019-03-30T02:36:49.731Z,1020.14
2019-03-30T02:37:49.754Z,1020.13
2019-03-30T02:38:49.682Z,1020.10
2019-03-30T02:39:49.673Z,1020.13
2019-03-30T02:40:49.661Z,1020.15
2019-03-30T02:41:49.686Z,1020.10
2019-03-30T02:42:49.648Z,1020.11
2019-03-30T02:43:49.629Z,1020.12
2019-03-30T02:44:49.620Z,1020.12
2019-03-30T02:45:49.606Z,1020.13
2019-03-30T02:46:49.600Z,1020.11
2019-03-30T02:47:49.616Z,1020.08
2019-03-30T02:48:49.604Z,1020.11
2019-03-30T02:49:49.565Z,1020.14
2019-03-30T02:50:50.742Z,1020.08
2019-03-30T02:51:49.592Z,1020.11
2019-03-30T02:52:49.572Z,1020.10
2019-03-30T02:53:49.531Z,1020.09
2019-03-30T02:54:49.515Z,1020.12
2019-03-30T02:55:49.501Z,1020.14
2019-03-30T02:56:49.492Z,1020.12
2019-03-30T02:57:49.481Z,1020.11
2019-03-30T02:58:49.502Z,1020.15
2019-03-30T02:59:49.462Z,1020.09
2019-03-30T03:00:49.450Z,1020.10
2019-03-30T03:01:49.437Z,1020.08
2019-03-30T03:02:49.428Z,1020.05
2019-03-30T03:03:49.602Z,1020.09
2019-03-30T03:04:49.410Z,1020.07
2019-03-30T03:05:49.396Z,1020.04
2019-03-30T03:06:49.385Z,1020.04
2019-03-30T03:07:49.393Z,1020.03
2019-03-30T03:08:49.413Z,1020.02
2019-03-30T03:09:49.352Z,1020.01
2019-03-30T03:10:49.341Z,1020.01
2019-03-30T03:11:49.344Z,1019.95
2019-03-30T03:12:49.322Z,1019.96
2019-03-30T03:13:49.313Z,1019.95
2019-03-30T03:14:49.323Z,1019.93
2019-03-30T03:15:49.286Z,1019.90
2019-03-30T03:16:49.283Z,1019.88
2019-03-30T03:17:49.268Z,1019.87
2019-03-30T03:18:49.254Z,1019.85
2019-03-30T03:19:49.271Z,1019.83
2019-03-30T03:21:06.193Z,1019.83
2019-03-30T03:21:50.221Z,1019.85
2019-03-30T03:22:49.213Z,1019.82
2019-03-30T03:23:49.205Z,1019.82
2019-03-30T03:24:49.238Z,1019.78
2019-03-30T03:25:49.189Z,1019.76
2019-03-30T03:26:49.171Z,1019.80
2019-03-30T03:27:49.160Z,1019.77
2019-03-30T03:28:49.149Z,1019.75
2019-03-30T03:29:49.138Z,1019.74
2019-03-30T03:30:49.154Z,1019.75
2019-03-30T03:31:49.123Z,1019.76
2019-03-30T03:32:49.105Z,1019.75
2019-03-30T03:33:49.121Z,1019.72
2019-03-30T03:34:49.097Z,1019.76
2019-03-30T03:35:49.107Z,1019.75
2019-03-30T03:36:49.062Z,1019.76
2019-03-30T03:37:49.056Z,1019.74
2019-03-30T03:38:49.154Z,1019.73
2019-03-30T03:39:49.031Z,1019.73
2019-03-30T03:40:49.047Z,1019.72
2019-03-30T03:41:49.012Z,1019.74
2019-03-30T03:42:49.003Z,1019.68
2019-03-30T03:43:48.988Z,1019.65
2019-03-30T03:44:48.980Z,1019.67
2019-03-30T03:45:49.013Z,1019.64
2019-03-30T03:46:48.954Z,1019.64
2019-03-30T03:47:49.028Z,1019.63
2019-03-30T03:48:48.944Z,1019.63
2019-03-30T03:49:48.926Z,1019.63
2019-03-30T03:50:48.911Z,1019.65
2019-03-30T03:51:48.929Z,1019.62
2019-03-30T03:52:48.890Z,1019.62
2019-03-30T03:53:48.880Z,1019.60
2019-03-30T03:54:48.868Z,1019.60
2019-03-30T03:55:48.859Z,1019.62
2019-03-30T03:56:48.885Z,1019.61
2019-03-30T03:57:48.839Z,1019.58
2019-03-30T03:58:48.907Z,1019.56
2019-03-30T03:59:48.813Z,1019.57
2019-03-30T04:00:48.805Z,1019.56
2019-03-30T04:01:48.794Z,1019.55
2019-03-30T04:02:48.809Z,1019.53
2019-03-30T04:03:48.772Z,1019.54
2019-03-30T04:04:48.770Z,1019.55
2019-03-30T04:05:48.751Z,1019.53
2019-03-30T04:06:48.743Z,1019.51
2019-03-30T04:07:48.756Z,1019.52
2019-03-30T04:08:48.728Z,1019.48
2019-03-30T04:09:48.709Z,1019.46
2019-03-30T04:10:48.807Z,1019.42
2019-03-30T04:11:48.685Z,1019.45
2019-03-30T04:12:48.701Z,1019.44
2019-03-30T04:13:48.665Z,1019.48
2019-03-30T04:14:48.654Z,1019.50
2019-03-30T04:15:48.649Z,1019.53
2019-03-30T04:16:48.631Z,1019.58
2019-03-30T04:17:48.655Z,1019.64
2019-03-30T04:18:48.723Z,1019.58
2019-03-30T04:19:48.625Z,1019.56
2019-03-30T04:20:48.593Z,1019.59
2019-03-30T04:21:48.581Z,1019.57
2019-03-30T04:22:48.569Z,1019.58
2019-03-30T04:23:48.597Z,1019.61
2019-03-30T04:24:48.546Z,1019.54
2019-03-30T04:25:48.535Z,1019.56
2019-03-30T04:26:48.525Z,1019.56
2019-03-30T04:27:48.521Z,1019.58
2019-03-30T04:28:48.502Z,1019.54
2019-03-30T04:29:48.581Z,1019.55
2019-03-30T04:30:48.486Z,1019.55
2019-03-30T04:31:48.489Z,1019.53
2019-03-30T04:32:48.461Z,1019.53
2019-03-30T04:33:48.449Z,1019.50
2019-03-30T04:34:48.476Z,1019.49
2019-03-30T04:35:48.427Z,1019.44
2019-03-30T04:36:48.478Z,1019.45
2019-03-30T04:37:48.408Z,1019.39
2019-03-30T04:38:48.400Z,1019.34
2019-03-30T04:39:48.403Z,1019.35
2019-03-30T04:40:48.398Z,1019.30
2019-03-30T04:41:48.363Z,1019.31
2019-03-30T04:42:48.352Z,1019.35
2019-03-30T04:43:48.342Z,1019.33
2019-03-30T04:44:48.335Z,1019.33
2019-03-30T04:45:48.343Z,1019.35
2019-03-30T04:46:48.314Z,1019.33
2019-03-30T04:47:48.300Z,1019.33
2019-03-30T04:48:48.290Z,1019.31
2019-03-30T04:49:48.281Z,1019.35
2019-03-30T04:50:48.293Z,1019.33
2019-03-30T04:51:57.350Z,1019.32
2019-03-30T04:52:49.252Z,1019.31
2019-03-30T04:53:48.237Z,1019.33
2019-03-30T04:54:48.223Z,1019.37
2019-03-30T04:55:48.252Z,1019.32
2019-03-30T04:56:48.209Z,1019.35
2019-03-30T04:57:49.675Z,1019.30
2019-03-30T04:58:48.182Z,1019.39
2019-03-30T04:59:48.170Z,1019.33
2019-03-30T05:00:48.161Z,1019.35
2019-03-30T05:01:48.174Z,1019.39
2019-03-30T05:02:48.140Z,1019.38
2019-03-30T05:03:48.127Z,1019.38
2019-03-30T05:04:48.203Z,1019.38
2019-03-30T05:05:48.106Z,1019.33
2019-03-30T05:06:48.155Z,1019.36
2019-03-30T05:07:48.090Z,1019.26
2019-03-30T05:08:48.076Z,1019.30
2019-03-30T05:09:48.065Z,1019.23
2019-03-30T05:10:48.058Z,1019.20
2019-03-30T05:11:48.044Z,1019.19
2019-03-30T05:12:48.058Z,1019.19
2019-03-30T05:13:48.020Z,1019.22
2019-03-30T05:14:48.011Z,1019.20
2019-03-30T05:15:48.005Z,1019.23
2019-03-30T05:16:47.988Z,1019.19
2019-03-30T05:17:48.291Z,1019.22
2019-03-30T05:18:47.969Z,1019.19
2019-03-30T05:19:47.956Z,1019.24
2019-03-30T05:20:47.945Z,1019.21
2019-03-30T05:21:47.937Z,1019.21
2019-03-30T05:22:51.113Z,1019.24
2019-03-30T05:23:47.915Z,1019.19
2019-03-30T05:24:47.904Z,1019.24
2019-03-30T05:25:47.891Z,1019.18
2019-03-30T05:26:47.880Z,1019.22
2019-03-30T05:27:47.872Z,1019.21
2019-03-30T05:28:47.890Z,1019.21
2019-03-30T05:29:47.851Z,1019.21
2019-03-30T05:30:47.839Z,1019.19
2019-03-30T05:31:47.828Z,1019.22
2019-03-30T05:32:47.817Z,1019.14
2019-03-30T05:33:47.838Z,1019.15
2019-03-30T05:34:47.798Z,1019.15
2019-03-30T05:35:47.786Z,1019.21
2019-03-30T05:36:47.780Z,1019.20
2019-03-30T05:37:47.763Z,1019.23
2019-03-30T05:38:47.790Z,1019.21
2019-03-30T05:39:47.746Z,1019.19
2019-03-30T05:40:47.731Z,1019.20
2019-03-30T05:41:47.719Z,1019.18
2019-03-30T05:42:47.711Z,1019.15
2019-03-30T05:43:47.701Z,1019.17
2019-03-30T05:44:47.714Z,1019.15
2019-03-30T05:45:47.678Z,1019.17
2019-03-30T05:46:47.666Z,1019.18
2019-03-30T05:47:47.658Z,1019.15
2019-03-30T05:48:47.643Z,1019.21
2019-03-30T05:49:47.672Z,1019.19
2019-03-30T05:50:47.624Z,1019.20
2019-03-30T05:51:47.616Z,1019.15
2019-03-30T05:52:47.602Z,1019.18
2019-03-30T05:53:47.592Z,1019.15
2019-03-30T05:54:47.584Z,1019.22
2019-03-30T05:55:47.597Z,1019.22
2019-03-30T05:56:47.560Z,1019.22
2019-03-30T05:57:47.551Z,1019.21
2019-03-30T05:58:47.537Z,1019.22
2019-03-30T05:59:47.529Z,1019.18
2019-03-30T06:00:47.545Z,1019.19
2019-03-30T06:01:47.505Z,1019.19
2019-03-30T06:02:47.498Z,1019.16
2019-03-30T06:03:47.486Z,1019.18
2019-03-30T06:04:47.473Z,1019.18
2019-03-30T06:05:47.510Z,1019.18
2019-03-30T06:06:47.452Z,1019.15
2019-03-30T06:07:47.443Z,1019.17
2019-03-30T06:08:47.434Z,1019.14
2019-03-30T06:09:47.424Z,1019.15
2019-03-30T06:10:47.434Z,1019.15
2019-03-30T06:11:47.399Z,1019.15
2019-03-30T06:12:47.391Z,1019.12
2019-03-30T06:13:47.376Z,1019.09
2019-03-30T06:14:47.365Z,1019.14
2019-03-30T06:15:47.384Z,1019.12
2019-03-30T06:16:47.346Z,1019.11
2019-03-30T06:17:47.336Z,1019.06
2019-03-30T06:18:47.323Z,1019.06
2019-03-30T06:19:47.313Z,1019.07
2019-03-30T06:20:47.332Z,1019.09
2019-03-30T06:21:47.291Z,1019.07
2019-03-30T06:22:47.282Z,1019.05
2019-03-30T06:23:48.760Z,1019.04
2019-03-30T06:24:47.259Z,1019.07
2019-03-30T06:25:47.286Z,1019.06
2019-03-30T06:26:47.240Z,1019.05
2019-03-30T06:27:47.235Z,1019.01
2019-03-30T06:28:47.219Z,1019.00
2019-03-30T06:29:47.206Z,1019.00
2019-03-30T06:30:47.201Z,1019.01
2019-03-30T06:31:47.210Z,1018.97
2019-03-30T06:32:47.177Z,1018.99
2019-03-30T06:33:47.164Z,1018.98
2019-03-30T06:34:47.153Z,1018.96
2019-03-30T06:35:47.144Z,1018.96
2019-03-30T06:36:47.156Z,1018.96
2019-03-30T06:37:47.127Z,1018.92
2019-03-30T06:38:47.111Z,1018.96
2019-03-30T06:39:47.100Z,1018.93
2019-03-30T06:40:47.094Z,1018.96
2019-03-30T06:41:47.113Z,1018.96
2019-03-30T06:42:47.109Z,1018.93
2019-03-30T06:43:47.057Z,1018.96
2019-03-30T06:44:47.045Z,1018.93
2019-03-30T06:45:47.035Z,1018.95
2019-03-30T06:46:47.051Z,1018.94
2019-03-30T06:47:47.050Z,1018.89
2019-03-30T06:48:47.004Z,1018.88
2019-03-30T06:49:46.990Z,1018.86
2019-03-30T06:50:46.979Z,1018.86
2019-03-30T06:51:46.970Z,1018.83
2019-03-30T06:52:57.447Z,1018.85
2019-03-30T06:53:47.970Z,1018.80
2019-03-30T06:54:46.937Z,1018.80
2019-03-30T06:55:46.923Z,1018.78
2019-03-30T06:56:46.912Z,1018.79
2019-03-30T06:57:46.903Z,1018.81
2019-03-30T06:58:47.028Z,1018.80
2019-03-30T06:59:46.881Z,1018.78
2019-03-30T07:00:46.873Z,1018.81
2019-03-30T07:01:46.859Z,1018.80
2019-03-30T07:02:46.848Z,1018.75
2019-03-30T07:03:46.836Z,1018.74
2019-03-30T07:04:46.853Z,1018.75
2019-03-30T07:05:46.829Z,1018.77
2019-03-30T07:06:46.804Z,1018.76
2019-03-30T07:07:46.791Z,1018.77
2019-03-30T07:08:46.782Z,1018.80
2019-03-30T07:09:46.807Z,1018.79
2019-03-30T07:10:46.768Z,1018.75
2019-03-30T07:11:46.756Z,1018.78
2019-03-30T07:12:46.743Z,1018.79
2019-03-30T07:13:46.730Z,1018.76
2019-03-30T07:14:46.720Z,1018.76
2019-03-30T07:15:46.736Z,1018.74
2019-03-30T07:16:46.701Z,1018.76
2019-03-30T07:17:46.687Z,1018.76
2019-03-30T07:18:46.678Z,1018.79
2019-03-30T07:19:46.665Z,1018.80
2019-03-30T07:20:46.686Z,1018.79
2019-03-30T07:21:46.645Z,1018.80
2019-03-30T07:22:46.634Z,1018.76
2019-03-30T07:23:46.625Z,1018.78
2019-03-30T07:24:46.617Z,1018.81
2019-03-30T07:25:46.642Z,1018.75
2019-03-30T07:26:46.591Z,1018.74
2019-03-30T07:27:46.583Z,1018.77
2019-03-30T07:28:47.209Z,1018.75
2019-03-30T07:29:46.561Z,1018.72
2019-03-30T07:30:46.547Z,1018.73
2019-03-30T07:31:46.561Z,1018.69
2019-03-30T07:32:46.526Z,1018.76
2019-03-30T07:33:46.513Z,1018.79
2019-03-30T07:34:46.523Z,1018.80
2019-03-30T07:35:46.492Z,1018.82
2019-03-30T07:36:46.510Z,1018.82
2019-03-30T07:37:46.518Z,1018.81
2019-03-30T07:38:46.460Z,1018.77
2019-03-30T07:39:46.466Z,1018.82
2019-03-30T07:40:46.437Z,1018.79
2019-03-30T07:41:46.464Z,1018.82
2019-03-30T07:42:46.414Z,1018.82
2019-03-30T07:43:46.404Z,1018.82
2019-03-30T07:44:46.393Z,1018.83
2019-03-30T07:45:46.381Z,1018.82
2019-03-30T07:46:46.371Z,1018.84
2019-03-30T07:47:46.396Z,1018.86
2019-03-30T07:48:46.354Z,1018.86
2019-03-30T07:49:46.339Z,1018.83
2019-03-30T07:50:46.330Z,1018.82
2019-03-30T07:51:46.318Z,1018.83
2019-03-30T07:52:46.309Z,1018.78
2019-03-30T07:53:46.325Z,1018.80
2019-03-30T07:54:46.315Z,1018.76
2019-03-30T07:55:46.277Z,1018.78
2019-03-30T07:56:46.277Z,1018.74
2019-03-30T07:57:46.254Z,1018.75
2019-03-30T07:58:46.269Z,1018.76
2019-03-30T07:59:46.235Z,1018.72
2019-03-30T08:00:46.222Z,1018.74
2019-03-30T08:01:46.228Z,1018.74
2019-03-30T08:02:46.203Z,1018.69
2019-03-30T08:03:46.232Z,1018.76
2019-03-30T08:04:46.180Z,1018.74
2019-03-30T08:05:46.167Z,1018.69
2019-03-30T08:06:46.157Z,1018.72
2019-03-30T08:07:46.147Z,1018.74
2019-03-30T08:08:46.145Z,1018.72
2019-03-30T08:09:46.160Z,1018.70
2019-03-30T08:10:46.114Z,1018.69
2019-03-30T08:11:46.102Z,1018.72
2019-03-30T08:12:46.093Z,1018.77
2019-03-30T08:13:46.081Z,1018.70
2019-03-30T08:14:46.134Z,1018.69
2019-03-30T08:15:46.086Z,1018.70
2019-03-30T08:16:46.047Z,1018.70
2019-03-30T08:17:46.036Z,1018.67
2019-03-30T08:18:46.027Z,1018.67
2019-03-30T08:19:46.025Z,1018.64
2019-03-30T08:20:46.039Z,1018.60
2019-03-30T08:21:45.996Z,1018.63
2019-03-30T08:22:45.983Z,1018.62
2019-03-30T08:23:45.972Z,1018.60
2019-03-30T08:24:45.963Z,1018.60
2019-03-30T08:25:45.991Z,1018.62
2019-03-30T08:26:45.939Z,1018.56
2019-03-30T08:27:45.930Z,1018.58
2019-03-30T08:28:45.920Z,1018.57
2019-03-30T08:29:45.909Z,1018.60
2019-03-30T08:30:45.898Z,1018.58
2019-03-30T08:31:45.913Z,1018.51
2019-03-30T08:32:45.880Z,1018.57
2019-03-30T08:33:45.868Z,1018.57
2019-03-30T08:34:45.861Z,1018.55
2019-03-30T08:35:45.843Z,1018.57
2019-03-30T08:36:45.858Z,1018.60
2019-03-30T08:37:45.844Z,1018.55
2019-03-30T08:38:45.875Z,1018.55
2019-03-30T08:39:45.799Z,1018.56
2019-03-30T08:40:45.856Z,1018.53
2019-03-30T08:41:45.817Z,1018.50
2019-03-30T08:42:45.772Z,1018.50
2019-03-30T08:43:45.757Z,1018.44
2019-03-30T08:44:45.749Z,1018.41
2019-03-30T08:45:48.795Z,1018.46
2019-03-30T08:46:45.725Z,1018.48
2019-03-30T08:47:45.751Z,1018.45
2019-03-30T08:48:45.707Z,1018.42
2019-03-30T08:49:45.698Z,1018.38
2019-03-30T08:50:45.685Z,1018.38
2019-03-30T08:51:45.672Z,1018.40
2019-03-30T08:52:45.663Z,1018.41
2019-03-30T08:53:54.564Z,1018.37
2019-03-30T08:54:46.639Z,1018.42
2019-03-30T08:55:45.630Z,1018.43
2019-03-30T08:56:45.618Z,1018.45
2019-03-30T08:57:45.607Z,1018.32
2019-03-30T08:58:45.629Z,1018.35
2019-03-30T08:59:45.588Z,1018.31
2019-03-30T09:00:45.577Z,1018.34
2019-03-30T09:01:45.566Z,1018.29
2019-03-30T09:02:45.554Z,1018.35
2019-03-30T09:03:45.574Z,1018.29
2019-03-30T09:04:45.532Z,1018.29
2019-03-30T09:05:45.524Z,1018.28
2019-03-30T09:06:45.510Z,1018.26
2019-03-30T09:07:45.500Z,1018.23
2019-03-30T09:08:45.519Z,1018.23
2019-03-30T09:09:45.478Z,1018.25
2019-03-30T09:10:45.465Z,1018.18
2019-03-30T09:11:45.477Z,1018.21
2019-03-30T09:12:45.444Z,1018.24
2019-03-30T09:13:45.458Z,1018.17
2019-03-30T09:14:45.426Z,1018.16
2019-03-30T09:15:45.412Z,1018.18
2019-03-30T09:16:45.400Z,1018.15
2019-03-30T09:17:45.391Z,1018.12
2019-03-30T09:18:45.414Z,1018.14
2019-03-30T09:19:45.377Z,1018.11
2019-03-30T09:20:45.357Z,1018.08
2019-03-30T09:21:45.346Z,1018.09
2019-03-30T09:22:45.336Z,1018.04
2019-03-30T09:23:45.325Z,1018.04
2019-03-30T09:24:45.339Z,1018.06
2019-03-30T09:25:45.304Z,1018.07
2019-03-30T09:26:45.293Z,1018.00
2019-03-30T09:27:45.285Z,1018.05
2019-03-30T09:28:45.272Z,1017.99
2019-03-30T09:29:45.295Z,1018.00
2019-03-30T09:30:45.250Z,1017.94
2019-03-30T09:31:45.242Z,1017.93
2019-03-30T09:32:45.408Z,1017.88
2019-03-30T09:33:45.245Z,1017.91
2019-03-30T09:34:45.208Z,1017.88
2019-03-30T09:35:45.220Z,1017.88
2019-03-30T09:36:45.302Z,1017.87
2019-03-30T09:37:45.207Z,1017.86
2019-03-30T09:38:45.164Z,1017.85
2019-03-30T09:39:45.152Z,1017.81
2019-03-30T09:40:45.172Z,1017.81
2019-03-30T09:41:45.132Z,1017.79
2019-03-30T09:42:45.120Z,1017.79
2019-03-30T09:43:45.109Z,1017.75
2019-03-30T09:44:45.108Z,1017.77
2019-03-30T09:45:45.112Z,1017.74
2019-03-30T09:46:45.078Z,1017.81
2019-03-30T09:47:45.068Z,1017.78
2019-03-30T09:48:45.055Z,1017.73
2019-03-30T09:49:45.046Z,1017.76
2019-03-30T09:50:45.061Z,1017.71
2019-03-30T09:51:45.022Z,1017.73
2019-03-30T09:52:45.015Z,1017.71
2019-03-30T09:53:45.001Z,1017.73
2019-03-30T09:54:44.991Z,1017.73
2019-03-30T09:55:45.018Z,1017.73
2019-03-30T09:56:44.970Z,1017.73
2019-03-30T09:57:44.957Z,1017.71
2019-03-30T09:58:44.948Z,1017.72
2019-03-30T09:59:44.942Z,1017.65
2019-03-30T10:00:44.963Z,1017.68
2019-03-30T10:01:44.945Z,1017.65
2019-03-30T10:02:44.906Z,1017.68
2019-03-30T10:03:44.895Z,1017.65
2019-03-30T10:04:44.887Z,1017.64
2019-03-30T10:05:44.874Z,1017.62
2019-03-30T10:06:44.891Z,1017.62
2019-03-30T10:07:44.852Z,1017.62
2019-03-30T10:08:44.843Z,1017.59
2019-03-30T10:09:47.242Z,1017.58
2019-03-30T10:10:44.822Z,1017.55
2019-03-30T10:11:44.849Z,1017.48
2019-03-30T10:12:44.800Z,1017.53
2019-03-30T10:13:44.788Z,1017.54
2019-03-30T10:14:44.776Z,1017.55
2019-03-30T10:15:44.767Z,1017.50
2019-03-30T10:16:44.759Z,1017.53
2019-03-30T10:17:44.781Z,1017.47
2019-03-30T10:18:44.755Z,1017.48
2019-03-30T10:19:48.091Z,1017.51
2019-03-30T10:20:45.715Z,1017.44
2019-03-30T10:21:44.705Z,1017.43
2019-03-30T10:22:44.690Z,1017.40
2019-03-30T10:23:44.703Z,1017.39
2019-03-30T10:24:44.668Z,1017.43
2019-03-30T10:25:44.656Z,1017.42
2019-03-30T10:26:44.646Z,1017.42
2019-03-30T10:27:44.636Z,1017.41
2019-03-30T10:28:47.045Z,1017.39
2019-03-30T10:29:44.614Z,1017.36
2019-03-30T10:30:44.604Z,1017.35
2019-03-30T10:31:44.594Z,1017.36
2019-03-30T10:32:44.583Z,1017.31
2019-03-30T10:33:44.609Z,1017.32
2019-03-30T10:34:44.561Z,1017.28
2019-03-30T10:35:44.549Z,1017.17
2019-03-30T10:36:44.542Z,1017.23
2019-03-30T10:37:44.529Z,1017.16
2019-03-30T10:38:44.517Z,1017.16
2019-03-30T10:39:44.529Z,1017.13
2019-03-30T10:40:44.494Z,1017.12
2019-03-30T10:41:44.484Z,1017.12
2019-03-30T10:42:44.474Z,1017.17
2019-03-30T10:43:44.463Z,1017.22
2019-03-30T10:44:44.491Z,1017.10
2019-03-30T10:45:44.442Z,1017.10
2019-03-30T10:46:44.430Z,1017.08
2019-03-30T10:47:44.420Z,1017.03
2019-03-30T10:48:44.410Z,1017.11
2019-03-30T10:49:44.397Z,1017.05
2019-03-30T10:50:44.416Z,1017.08
2019-03-30T10:51:44.378Z,1017.09
2019-03-30T10:52:44.365Z,1017.02
2019-03-30T10:53:44.356Z,1017.02
2019-03-30T10:54:52.447Z,1017.04
2019-03-30T10:55:45.368Z,1017.05
2019-03-30T10:56:44.323Z,1017.07
2019-03-30T10:57:44.316Z,1017.03
2019-03-30T10:58:44.301Z,1017.00
2019-03-30T10:59:44.293Z,1017.02
2019-03-30T11:00:44.283Z,1017.00
2019-03-30T11:01:44.304Z,1016.93
2019-03-30T11:02:44.258Z,1016.95
2019-03-30T11:03:44.247Z,1016.90
2019-03-30T11:04:44.236Z,1016.93
2019-03-30T11:05:44.225Z,1016.90
2019-03-30T11:06:44.216Z,1016.90
2019-03-30T11:07:44.247Z,1016.83
2019-03-30T11:08:44.199Z,1016.85
2019-03-30T11:09:44.183Z,1016.86
2019-03-30T11:10:44.173Z,1016.88
2019-03-30T11:11:44.159Z,1016.85
2019-03-30T11:12:44.152Z,1016.77
2019-03-30T11:13:44.164Z,1016.83
2019-03-30T11:14:44.132Z,1016.80
2019-03-30T11:15:44.119Z,1016.76
2019-03-30T11:16:44.108Z,1016.71
2019-03-30T11:17:44.102Z,1016.71
2019-03-30T11:18:44.111Z,1016.67
2019-03-30T11:19:44.074Z,1016.67
2019-03-30T11:20:44.065Z,1016.65
2019-03-30T11:21:44.053Z,1016.67
2019-03-30T11:22:44.044Z,1016.70
2019-03-30T11:23:44.056Z,1016.66
2019-03-30T11:24:44.022Z,1016.70
2019-03-30T11:25:44.012Z,1016.61
2019-03-30T11:26:44.001Z,1016.61
2019-03-30T11:27:43.990Z,1016.62
2019-03-30T11:28:44.017Z,1016.61
2019-03-30T11:29:43.974Z,1016.66
2019-03-30T11:30:43.958Z,1016.58
2019-03-30T11:31:43.956Z,1016.62
2019-03-30T11:32:43.935Z,1016.64
2019-03-30T11:33:43.925Z,1016.57
2019-03-30T11:34:43.941Z,1016.53
2019-03-30T11:35:43.904Z,1016.47
2019-03-30T11:36:43.895Z,1016.47
2019-03-30T11:37:43.883Z,1016.45
2019-03-30T11:38:43.873Z,1016.49
2019-03-30T11:39:44.006Z,1016.54
2019-03-30T11:40:43.851Z,1016.52
2019-03-30T11:41:43.839Z,1016.54
2019-03-30T11:42:43.827Z,1016.46
2019-03-30T11:43:43.820Z,1016.41
2019-03-30T11:44:43.809Z,1016.55
2019-03-30T11:45:43.822Z,1016.45
2019-03-30T11:46:43.803Z,1016.43
2019-03-30T11:47:43.776Z,1016.46
2019-03-30T11:48:43.766Z,1016.35
2019-03-30T11:49:43.758Z,1016.30
2019-03-30T11:50:43.770Z,1016.29
2019-03-30T11:51:43.736Z,1016.27
2019-03-30T11:52:43.723Z,1016.33
2019-03-30T11:53:43.729Z,1016.27
2019-03-30T11:54:43.702Z,1016.22
2019-03-30T11:55:43.718Z,1016.19
2019-03-30T11:56:43.680Z,1016.13
2019-03-30T11:57:43.672Z,1016.14
2019-03-30T11:58:43.664Z,1016.10
2019-03-30T11:59:43.655Z,1016.13
2019-03-30T12:00:43.671Z,1016.10
2019-03-30T12:01:43.629Z,1016.05
2019-03-30T12:02:43.619Z,1016.10
2019-03-30T12:03:43.609Z,1016.06
2019-03-30T12:04:43.603Z,1016.01
2019-03-30T12:05:43.616Z,1015.98